createdAt,value
2022-08-12T00:02:33.067Z,2.8
2022-08-12T00:07:33.067Z,3.2
2022-08-12T00:12:33.066Z,2.6
2022-08-12T00:17:33.076Z,3.0
2022-08-12T00:22:33.082Z,2.8
2022-08-12T00:27:43.349Z,2.9
2022-08-12T00:32:35.377Z,3.1
2022-08-12T00:37:33.074Z,2.8
2022-08-12T00:42:33.075Z,2.9
2022-08-12T00:47:33.076Z,2.7
2022-08-12T00:52:33.080Z,3.0
2022-08-12T00:57:33.081Z,3.3
2022-08-12T01:02:33.078Z,3.0
2022-08-12T01:07:33.083Z,3.3
2022-08-12T01:12:33.085Z,2.9
2022-08-12T01:17:33.100Z,3.1
2022-08-12T01:22:33.082Z,3.2
2022-08-12T01:27:33.092Z,3.5
2022-08-12T01:32:33.086Z,3.5
2022-08-12T01:37:33.089Z,3.3
2022-08-12T01:42:33.090Z,3.2
2022-08-12T01:47:33.105Z,3.3
2022-08-12T01:52:33.171Z,3.2
2022-08-12T01:57:58.299Z,3.6
2022-08-12T02:02:33.102Z,3.6
2022-08-12T02:07:33.108Z,3.5
2022-08-12T02:12:33.099Z,3.4
2022-08-12T02:17:55.951Z,3.8
2022-08-12T02:22:33.108Z,3.6
2022-08-12T02:27:33.107Z,3.6
2022-08-12T02:32:33.113Z,3.4
2022-08-12T02:37:33.106Z,3.8
2022-08-12T02:42:33.139Z,4.0
2022-08-12T02:47:58.381Z,4.0
2022-08-12T02:52:33.115Z,3.7
2022-08-12T02:57:33.118Z,3.8
2022-08-12T03:02:33.127Z,4.0
2022-08-12T03:07:56.440Z,4.9
2022-08-12T03:12:34.179Z,4.0
2022-08-12T03:17:33.117Z,3.9
2022-08-12T03:22:33.126Z,3.9
2022-08-12T03:27:33.128Z,4.3
2022-08-12T03:32:35.192Z,4.3
2022-08-12T03:37:33.135Z,4.4
2022-08-12T03:42:33.129Z,4.5
2022-08-12T03:47:33.137Z,4.6
2022-08-12T03:52:33.133Z,4.4
2022-08-12T03:57:33.130Z,4.5
2022-08-12T04:02:33.140Z,4.7
2022-08-12T04:07:33.142Z,4.4
2022-08-12T04:12:33.400Z,4.6
2022-08-12T04:17:33.145Z,4.5
2022-08-12T04:22:33.144Z,4.1
2022-08-12T04:27:33.142Z,4.5
2022-08-12T04:32:33.146Z,4.7
2022-08-12T04:37:58.929Z,4.7
2022-08-12T04:42:33.151Z,4.6
2022-08-12T04:47:33.152Z,4.9
2022-08-12T04:52:35.002Z,4.5
2022-08-12T04:57:33.150Z,4.4
2022-08-12T05:02:33.214Z,4.7
2022-08-12T05:07:33.157Z,4.4
2022-08-12T05:12:33.168Z,5.2
2022-08-12T05:17:33.162Z,4.8
2022-08-12T05:22:37.114Z,5.3
2022-08-12T05:27:33.189Z,4.5
2022-08-12T05:32:33.170Z,5.1
2022-08-12T05:37:33.176Z,4.5
2022-08-12T05:42:34.646Z,5.1
2022-08-12T05:47:42.768Z,5.4
2022-08-12T05:52:33.183Z,4.7
2022-08-12T05:57:33.175Z,5.2
2022-08-12T06:02:33.180Z,5.7
2022-08-12T06:07:59.301Z,5.2
2022-08-12T06:12:33.187Z,5.7
2022-08-12T06:17:33.186Z,5.5
2022-08-12T06:22:33.188Z,5.0
2022-08-12T06:27:33.191Z,5.1
2022-08-12T06:32:33.194Z,5.5
2022-08-12T06:37:33.201Z,5.3
2022-08-12T06:42:33.570Z,5.4
2022-08-12T06:47:33.216Z,5.2
2022-08-12T06:52:33.205Z,5.3
2022-08-12T06:58:06.770Z,5.5
2022-08-12T07:02:36.893Z,5.6
2022-08-12T07:07:33.221Z,4.8
2022-08-12T07:12:33.229Z,6.0
2022-08-12T07:17:33.232Z,4.8
2022-08-12T07:22:33.241Z,4.5
2022-08-12T07:27:33.238Z,4.3
2022-08-12T07:32:33.247Z,4.2
2022-08-12T07:37:33.256Z,4.2
2022-08-12T07:42:33.251Z,3.6
2022-08-12T07:47:33.272Z,4.0
2022-08-12T07:52:33.279Z,3.9
2022-08-12T07:57:33.275Z,3.4
2022-08-12T08:02:33.270Z,3.4
2022-08-12T08:07:33.270Z,3.4
2022-08-12T08:12:33.278Z,3.4
2022-08-12T08:17:33.285Z,3.5
2022-08-12T08:22:41.798Z,3.3
2022-08-12T08:27:33.300Z,3.0
2022-08-12T08:32:33.291Z,3.2
2022-08-12T08:37:36.330Z,2.8
2022-08-12T08:42:33.300Z,3.0
2022-08-12T08:47:33.295Z,2.5
2022-08-12T08:52:39.484Z,2.9
2022-08-12T08:57:43.622Z,2.7
2022-08-12T09:02:33.306Z,2.9
2022-08-12T09:12:36.055Z,2.4
2022-08-12T09:17:42.016Z,2.8
2022-08-12T09:22:35.073Z,2.7
2022-08-12T09:27:58.001Z,2.5
2022-08-12T09:33:04.242Z,2.4
2022-08-12T09:37:57.989Z,2.8
2022-08-12T09:42:43.491Z,2.8
2022-08-12T09:47:33.543Z,2.7
2022-08-12T09:52:33.247Z,2.5
2022-08-12T09:58:46.679Z,2.3
2022-08-12T10:02:45.848Z,2.4
2022-08-12T10:07:40.698Z,2.3
2022-08-12T10:12:33.654Z,2.6
2022-08-12T10:17:33.252Z,2.5
2022-08-12T10:22:49.323Z,2.3
2022-08-12T10:27:39.291Z,2.4
2022-08-12T10:32:44.080Z,2.2
2022-08-12T10:38:37.926Z,2.5
2022-08-12T10:42:33.259Z,1.9
2022-08-12T10:48:15.871Z,2.5
2022-08-12T10:52:47.166Z,2.1
2022-08-12T10:58:12.681Z,2.3
2022-08-12T11:04:25.547Z,2.1
2022-08-12T11:08:38.193Z,2.6
2022-08-12T11:12:55.161Z,2.2
2022-08-12T11:17:42.954Z,2.3
2022-08-12T11:22:33.279Z,2.1
2022-08-12T11:27:33.287Z,2.2
2022-08-12T11:32:38.574Z,2.6
2022-08-12T11:37:33.265Z,2.3
2022-08-12T11:42:33.258Z,2.7
2022-08-12T11:47:33.268Z,1.9
2022-08-12T11:52:55.457Z,2.2
2022-08-12T11:58:17.199Z,2.7
2022-08-12T12:02:33.419Z,2.5
2022-08-12T12:08:36.377Z,2.3
2022-08-12T12:12:33.310Z,2.3
2022-08-12T12:17:38.088Z,2.3
2022-08-12T12:22:33.362Z,2.4
2022-08-12T12:27:39.342Z,2.3
2022-08-12T12:32:33.356Z,2.0
2022-08-12T12:38:04.103Z,1.9
2022-08-12T12:42:42.956Z,2.3
2022-08-12T12:47:33.308Z,1.9
2022-08-12T12:52:33.337Z,1.9
2022-08-12T12:57:59.215Z,2.0
2022-08-12T13:02:33.320Z,1.9
2022-08-12T13:07:49.063Z,2.1
2022-08-12T13:12:33.333Z,1.9
2022-08-12T13:18:00.705Z,2.2
2022-08-12T13:22:33.469Z,1.9
2022-08-12T13:27:34.637Z,1.9
2022-08-12T13:32:33.349Z,1.9
2022-08-12T13:37:54.569Z,2.0
2022-08-12T13:42:33.345Z,2.0
2022-08-12T13:47:33.353Z,1.9
2022-08-12T13:52:33.354Z,1.9
2022-08-12T13:57:33.359Z,1.9
2022-08-12T14:02:33.399Z,2.0
2022-08-12T14:07:45.934Z,2.0
2022-08-12T14:12:33.382Z,2.1
2022-08-12T14:17:33.369Z,1.7
2022-08-12T14:22:33.373Z,2.1
2022-08-12T14:28:05.957Z,1.9
2022-08-12T14:32:33.427Z,2.2
2022-08-12T14:37:56.045Z,1.8
2022-08-12T14:42:33.382Z,1.7
2022-08-12T14:47:35.010Z,2.1
2022-08-12T14:53:26.220Z,6.2
2022-08-12T14:57:35.469Z,2.5
2022-08-12T15:02:33.390Z,2.3
2022-08-12T15:07:51.258Z,1.8
2022-08-12T15:12:33.399Z,1.9
2022-08-12T15:17:38.150Z,1.5
2022-08-12T15:22:37.641Z,1.8
2022-08-12T15:28:04.301Z,1.6
2022-08-12T15:32:33.399Z,1.4
2022-08-12T15:37:58.898Z,2.1
2022-08-12T15:42:33.400Z,2.0
2022-08-12T15:47:33.518Z,2.5
2022-08-12T15:52:33.404Z,1.5
2022-08-12T15:57:33.739Z,1.5
2022-08-12T16:02:33.408Z,1.5
2022-08-12T16:07:37.104Z,1.5
2022-08-12T16:12:33.417Z,1.5
2022-08-12T16:18:14.656Z,1.5
2022-08-12T16:22:33.416Z,1.4
2022-08-12T16:27:38.538Z,1.3
2022-08-12T16:32:33.421Z,1.7
2022-08-12T16:38:27.761Z,1.4
2022-08-12T16:42:34.024Z,1.6
2022-08-12T16:47:58.310Z,1.5
2022-08-12T16:52:33.424Z,1.5
2022-08-12T16:57:35.715Z,1.4
2022-08-12T17:02:34.429Z,1.4
2022-08-12T17:07:36.812Z,1.4
2022-08-12T17:12:33.431Z,1.5
2022-08-12T17:17:39.434Z,1.4
2022-08-12T17:22:33.436Z,1.4
2022-08-12T17:27:33.430Z,1.4
2022-08-12T17:32:33.454Z,1.6
2022-08-12T17:37:33.439Z,1.4
2022-08-12T17:42:35.085Z,1.6
2022-08-12T17:47:36.308Z,1.5
2022-08-12T17:52:33.664Z,1.1
2022-08-12T17:57:33.444Z,1.5
2022-08-12T18:02:33.448Z,1.2
2022-08-12T18:07:35.717Z,1.3
2022-08-12T18:12:35.331Z,1.4
2022-08-12T18:17:33.448Z,1.2
2022-08-12T18:22:33.448Z,1.5
2022-08-12T18:27:43.165Z,1.2
2022-08-12T18:32:58.780Z,1.3
2022-08-12T18:37:41.506Z,1.6
2022-08-12T18:42:33.576Z,1.3
2022-08-12T18:47:49.817Z,1.5
2022-08-12T18:52:33.517Z,1.4
2022-08-12T18:58:05.753Z,2.5
2022-08-12T19:02:36.094Z,1.5
2022-08-12T19:07:49.324Z,1.7
2022-08-12T19:12:33.543Z,1.9
2022-08-12T19:17:47.501Z,1.6
2022-08-12T19:22:33.554Z,1.8
2022-08-12T19:27:33.552Z,1.8
2022-08-12T19:32:33.614Z,2.1
2022-08-12T19:38:03.145Z,2.2
2022-08-12T19:42:33.545Z,2.3
2022-08-12T19:47:38.784Z,2.3
2022-08-12T19:52:33.548Z,2.6
2022-08-12T19:57:33.540Z,2.8
2022-08-12T20:02:33.543Z,2.6
2022-08-12T20:07:34.549Z,2.7
2022-08-12T20:12:34.620Z,3.5
2022-08-12T20:17:36.427Z,3.1
2022-08-12T20:22:33.580Z,2.8
2022-08-12T20:28:05.006Z,3.2
2022-08-12T20:32:37.482Z,3.7
2022-08-12T20:38:07.407Z,3.1
2022-08-12T20:42:33.555Z,3.1
2022-08-12T20:47:41.972Z,2.9
2022-08-12T20:52:41.656Z,3.2
2022-08-12T20:58:02.057Z,2.9
2022-08-12T21:02:33.679Z,3.1
2022-08-12T21:07:34.228Z,2.9
2022-08-12T21:12:34.260Z,2.8
2022-08-12T21:18:00.415Z,2.9
2022-08-12T21:22:33.561Z,2.9
2022-08-12T21:27:58.587Z,2.8
2022-08-12T21:32:40.817Z,3.0
2022-08-12T21:37:37.354Z,3.1
2022-08-12T21:42:33.570Z,2.7
2022-08-12T21:47:33.572Z,2.7
2022-08-12T21:52:34.543Z,2.0
2022-08-12T21:57:36.309Z,2.6
2022-08-12T22:02:33.578Z,2.6
2022-08-12T22:07:46.114Z,2.7
2022-08-12T22:12:33.634Z,2.3
2022-08-12T22:17:33.756Z,2.0
2022-08-12T22:22:34.206Z,2.3
2022-08-12T22:27:33.590Z,2.5
2022-08-12T22:32:33.830Z,2.3
2022-08-12T22:37:33.581Z,2.4
2022-08-12T22:42:33.589Z,2.4
2022-08-12T22:47:55.145Z,2.1
2022-08-12T22:52:33.686Z,2.3
2022-08-12T22:57:53.231Z,2.5
2022-08-12T23:02:33.587Z,2.4
2022-08-12T23:07:36.062Z,2.4
2022-08-12T23:12:33.596Z,2.2
2022-08-12T23:17:40.986Z,2.5
2022-08-12T23:22:36.192Z,2.0
2022-08-12T23:27:44.009Z,2.5
2022-08-12T23:32:35.794Z,2.2
2022-08-12T23:37:47.828Z,3.1
2022-08-12T23:42:33.603Z,2.5
2022-08-12T23:47:33.617Z,2.3
2022-08-12T23:52:34.713Z,2.2
2022-08-12T23:58:08.061Z,2.5
